Gilman, VT (05904)

10:06 AM EDT on June 27, 2017 (GMT -0400)
Fournier Rd | | Change Station
Active Advisory: Special Statement

Elev 1352 ft 44.47 °N, 71.73 °W | Updated 20 seconds ago

Partly Cloudy
Partly Cloudy
61.3 °F
Feels Like 61.3 °F
N
2.5
Wind Variable Wind from WSW
Gusts 4.9 mph

Today
High -- | Low -- °F
--% Chance of Precip.
Yesterday
High -- | Low -- °F
Precip. -- in
Pressure 30.00 in
Visibility 10.0 miles
Clouds Clear
Dew Point 34 °F
Humidity 36%
Rainfall 0.00 in
Snow Depth Not available.
5:04 AM 8:35 PM
Waxing Crescent, 16% visible
METAR KHIE 271352Z AUTO 00000KT 10SM CLR 18/12 A2999 RMK AO2 SLP157 T01780117
Pressure 30.00 in
Visibility 10.0 miles
Clouds Clear
Dew Point 34 °F
Humidity 36%
Rainfall 0.00 in
Snow Depth Not available.
5:04 AM 8:35 PM
Waxing Crescent, 16% visible
METAR KHIE 271352Z AUTO 00000KT 10SM CLR 18/12 A2999 RMK AO2 SLP157 T01780117

Get Your Daily Forecast Email!

Thanks for signing up!

Be on the lookout for a verification email in your inbox.

You'll start receiving severe weather alerts in your inbox..

×

10-Day Weather Forecast

Almanac

Astronomy

Jun. 27, 2017 Rise Set
Actual Time
Civil Twilight
Nautical Twilight
Astronomical Twilight
Moon
Length of Visible Light
Length of Day
Tomorrow will be .
, % of the Moon is Illuminated

Today's Extremes

State Highs State Lows

Community

WunderPhotos

Category 6

Welcome to Category 6. This is the collective home for Weather Underground's featured writeups by Dr. Jeff Masters (right), Bob Henson (left), Chris Burt, and other regular contributors.

Nearby

Air Quality

  Air Quality AQ Index Pollutant
Not available.

Snow Depth

Station Depth Elevation

Earthquake Activity

City Distance Mag. Time & Date
Minimum magnitude displayed is 2.5.

Coastal Water Temperatures

Place Temperature

Stations

Nearby Weather Stations

Station Location Temp. Windchill Dew Point Humidity Wind Precip. Elev Updated Type
                   

Watches & Warnings

Special Statement
Issued: 4:50 AM EDT Jun. 27, 2017 – National Weather Service

... Gusty winds and small hail possible today...

Scattered to numerous showers and isolated thunderstorms are
expected to develop over northern New York and Vermont during the
late morning and afternoon hours. This activity will move from
southwest to northeast across the area. Any of the storms will
have the potential to produce gusty winds... in the 30 to 40 mph
range... and small hail. The threat for stronger storms will end by
evening. Anyone with outdoor plans today should be aware of the
potential for lightning... gusty winds... and hail. Seek shelter
indoors as storms approach.


Evenson